메인 페이지
METAR-TAF:

METAR-TAF

공항 :

화이트플레인스, 뉴욕, 미국

위도: 41-04-01N, 경도: 073-42-27W, 고도: 134m

현재 날씨관측

예보는 59분 전, 23:56시(UTC)에 발표되었습니다.
북서7kt
온도 5°C
습도 52%
기압 1010 hPa
시정: 16.1km
맑음

METAR: KHPN 032356Z 31007KT 10SM CLR 05/M04 A2982 RMK AO2 SLP105 T00501044 10094 20050 53013

시각: 19:55 (00:55 UTC)

예보

예보는 1 시간 27분 전, 23:28시(UTC)에 발표되었습니다.
예보 대상 시간: 04일 00시부터 04일 24시까지 (UTC)
서북서5kt
시정: 10km
고도 4000ft 상공 구름 조금
04일 0300시부터 (UTC)
북서5kt
시정: 10km
고도 4000ft 상공 구름 보통
04일 1500시부터 (UTC)
북서11kt, 순간 최대 풍속 18kt
시정: 10km
고도 13000ft 상공 구름 보통
04일 2100시부터 (UTC)
북서17kt, 순간 최대 풍속 27kt
시정: 10km
고도 25000ft 상공 구름 조금

TAF: KHPN 032328Z 0400/0424 30005KT P6SM FEW040 FM040300 31005KT P6SM SCT040 FM041500 31011G18KT P6SM SCT130 FM042100 31017G27KT P6SM FEW250 AMD NOT SKED

4,000개 이상의 공항 관측 자료 및 예보 (METAR 및 TAF 보고).

지도상에서 검색 가능한 기상관측소가 노란 점과 빨간 점으로 표시되어 있습니다.

기상관측소 명을 보려면 표시 위로 마우스를 이동하세요.

날씨 관측과 예보를 보려면 클릭하세요.

지도 변경 : 확대하려면 엑스 표시가 있는 녹색 버튼, 축소하려면 빼기 표시가 있는 녹색 버튼, 다음 페이지의 지도를 보려면 녹색 화살표를 클릭하세요.


METAR-TAF: